Pagrindinis puslapis
METAR-TAF:

METAR-TAF

Oro uostai :

Krasnodaras, Rusija

platuma: 45-02N, ilguma: 039-09E, Aukštis: 33 m

Dabartinis oras

Ataskaita buvo paskelbta 15 minutes, ne 03:00 UTC
Vėjas 4 kt iš Rytų
Temperatūra -4°C
Drėgmė 100%
Slėgis 1027 hPa
Matomumas: 7000 m

METAR: URKK 180300Z 10002MPS 7000 NSC M04/M04 Q1027 R23L/19//65 TEMPO 0200 FZFG BKN001 RMK QFE767

Laikas: 07:15 (03:15 UTC)

Prognozė

Ataskaita buvo paskelbta 1 valandą ir 20 minutes, ne 01:55 UTC
Prognozė galioja nuo 18 metu 03 UTC su 19 metu 03 UTC
Vėjas 6 kt iš Rytų/Pietryčių
Matomumas: 3100 m
Išsisklaidę debesys ne aukštis 1100 ft
rūkana
Laikinai
nuo 18 metu 03 UTC su 18 metu 06 UTC
Matomumas: 0200 m
Apsiniaukę ne aukštis 100 ft
įšaldymas rūko
Nuo 18 metu 0800 UTC
Vėjas 6 kt iš Rytų su gūsio iki 16 kt
Matomumas 10 km arba daugiau
Išsisklaidę debesys ne aukštis 3000 ft

TAF: URKK 180155Z 1803/1903 11003MPS 3100 BR SCT011 TEMPO 1803/1806 0200 FZFG OVC001 FM180800 10003G08MPS 9999 SCT030

Orai ataskaitas ir orų prognozės (METAR, TAF).

turimą stotys yra geltonos ir raudonos taškus žemėlapyje.

Perkelti pele per norėdami pamatyti stoties vardą.

Tada spustelėkite, norėdami matyti oro stebėjimo ir prognozės.

Norėdami pakeisti žemėlapį: spustelėkite ant žalios mygtukų su juodo kryžiaus žemyn,; žalią mygtuką su brūkšneliu, jei norite nutolinti; arba žalių rodyklių gretimoms žemėlapius.


METAR-TAF: